Bartlett, Illinois
Current Conditions -  °F | °C
As of 9:52 AM on Thursday 23 Oct 2014 (Local Time) from KDPA Reporting Station
Clear Clear  
Wind Chill: 44°   Ceiling: Unl
Heat Index: 48°   Visibility: 8mi
Dew Point: 41°   Wind: 9mph
Humidity: 77%   Direction: 180°S
Pressure: 30.21"   Gusts: NA
Location:  41.99°N, 88.18°W
Report Text: KDPA 231452Z 18008KT 8SM CLR 09/05 A3021 RMK AO2 SLP233 T00890050 50001
Loading
Personal Weather Stations






























Interactive Weather Map New forecast layout! Learn more

10-Day Weather Forecast

Advertisements
Track Severe Weather on mobile